createdAt,value
2017-03-07T00:07:54.097Z,26
2017-03-07T00:17:54.122Z,26
2017-03-07T00:27:54.029Z,27
2017-03-07T00:37:54.244Z,24
2017-03-07T00:47:54.221Z,26
2017-03-07T00:57:54.076Z,27
2017-03-07T01:07:54.099Z,27
2017-03-07T01:17:54.132Z,28
2017-03-07T01:27:54.275Z,26
2017-03-07T01:37:54.209Z,30
2017-03-07T01:47:53.950Z,29
2017-03-07T01:57:53.991Z,28
2017-03-07T02:07:54.090Z,30
2017-03-07T02:17:53.994Z,30
2017-03-07T02:27:53.957Z,30
2017-03-07T02:37:53.973Z,30
2017-03-07T02:47:53.933Z,29
2017-03-07T02:57:54.045Z,30
2017-03-07T03:07:53.886Z,26
2017-03-07T03:17:53.927Z,24
2017-03-07T03:27:53.989Z,23
2017-03-07T03:37:53.941Z,23
2017-03-07T03:47:53.903Z,24
2017-03-07T03:57:53.939Z,24
2017-03-07T04:07:53.943Z,25
2017-03-07T04:17:53.988Z,24
2017-03-07T04:27:53.926Z,24
2017-03-07T04:37:54.019Z,26
2017-03-07T04:47:53.994Z,28
2017-03-07T04:57:53.885Z,28
2017-03-07T05:07:54.042Z,30
2017-03-07T05:17:53.909Z,29
2017-03-07T05:27:53.908Z,31
2017-03-07T05:37:53.924Z,29
2017-03-07T05:47:53.954Z,28
2017-03-07T05:57:54.002Z,30
2017-03-07T06:07:53.843Z,29
2017-03-07T06:17:54.244Z,30
2017-03-07T06:27:53.996Z,30
2017-03-07T06:37:54.105Z,26
2017-03-07T06:47:53.891Z,29
2017-03-07T06:57:54.060Z,29
2017-03-07T07:07:53.910Z,34
2017-03-07T07:17:54.055Z,34
2017-03-07T07:27:53.919Z,33
2017-03-07T07:37:53.999Z,34
2017-03-07T07:47:53.997Z,34
2017-03-07T07:57:53.885Z,34
2017-03-07T08:07:53.842Z,35
2017-03-07T08:17:54.052Z,35
2017-03-07T08:27:54.142Z,33
2017-03-07T08:37:54.347Z,32
2017-03-07T08:47:56.785Z,30
2017-03-07T08:57:54.048Z,30
2017-03-07T09:07:53.885Z,29
2017-03-07T09:17:53.861Z,26
2017-03-07T09:27:54.005Z,26
2017-03-07T09:37:53.882Z,26
2017-03-07T09:47:53.920Z,27
2017-03-07T09:57:53.905Z,37
2017-03-07T10:07:54.011Z,29
2017-03-07T10:17:53.887Z,27
2017-03-07T10:27:54.122Z,36
2017-03-07T10:38:00.900Z,29
2017-03-07T10:47:54.023Z,38
2017-03-07T10:57:53.855Z,32
2017-03-07T11:07:53.931Z,29
2017-03-07T11:17:53.926Z,14
2017-03-07T11:27:53.896Z,15
2017-03-07T11:37:54.021Z,12
2017-03-07T11:47:53.896Z,25
2017-03-07T11:57:53.943Z,22
2017-03-07T12:07:54.032Z,28
2017-03-07T12:17:53.903Z,23
2017-03-07T12:27:53.939Z,30
2017-03-07T12:37:53.951Z,24
2017-03-07T12:47:53.960Z,25
2017-03-07T12:57:54.256Z,29
2017-03-07T13:07:53.915Z,30
2017-03-07T13:17:54.248Z,19
2017-03-07T13:27:53.853Z,16
2017-03-07T13:37:53.883Z,13
2017-03-07T13:47:55.538Z,5
2017-03-07T13:57:53.979Z,8
2017-03-07T14:07:53.909Z,5
2017-03-07T14:17:54.098Z,3
2017-03-07T14:27:53.976Z,3
2017-03-07T14:37:53.967Z,4
2017-03-07T14:47:54.080Z,5
2017-03-07T14:57:53.932Z,3
2017-03-07T15:07:53.868Z,3
2017-03-07T15:17:53.843Z,4
2017-03-07T15:27:53.915Z,6
2017-03-07T15:37:54.058Z,6
2017-03-07T15:47:53.854Z,5
2017-03-07T15:57:53.901Z,6
2017-03-07T16:07:54.303Z,8
2017-03-07T16:17:53.854Z,10
2017-03-07T16:27:53.840Z,10
2017-03-07T16:37:53.872Z,12
2017-03-07T16:47:53.867Z,11
2017-03-07T16:57:53.875Z,11
2017-03-07T17:07:54.046Z,10
2017-03-07T17:17:53.915Z,8
2017-03-07T17:27:53.844Z,10
2017-03-07T17:37:53.865Z,10
2017-03-07T17:47:53.894Z,10
2017-03-07T17:57:53.814Z,12
2017-03-07T18:07:53.779Z,12
2017-03-07T18:17:53.962Z,13
2017-03-07T18:27:54.143Z,15
2017-03-07T18:37:53.855Z,17
2017-03-07T18:47:53.750Z,17
2017-03-07T18:57:53.847Z,16
2017-03-07T19:07:53.840Z,19
2017-03-07T19:17:53.855Z,20
2017-03-07T19:27:53.782Z,15
2017-03-07T19:37:53.810Z,19
2017-03-07T19:47:53.767Z,18
2017-03-07T19:57:53.806Z,20
2017-03-07T20:07:53.996Z,18
2017-03-07T20:17:54.297Z,19
2017-03-07T20:27:53.856Z,18
2017-03-07T20:37:53.907Z,17
2017-03-07T20:47:53.836Z,19
2017-03-07T20:57:53.922Z,17
2017-03-07T21:07:53.921Z,18
2017-03-07T21:17:53.986Z,19
2017-03-07T21:27:53.863Z,19
2017-03-07T21:37:53.966Z,19
2017-03-07T21:47:54.049Z,18
2017-03-07T21:57:53.880Z,19
2017-03-07T22:07:54.144Z,18
2017-03-07T22:17:54.552Z,17
2017-03-07T22:27:53.918Z,18
2017-03-07T22:37:54.558Z,21
2017-03-07T22:47:57.134Z,20
2017-03-07T22:57:53.879Z,19
2017-03-07T23:07:55.160Z,20
2017-03-07T23:17:54.076Z,19
2017-03-07T23:27:53.804Z,18
2017-03-07T23:37:53.778Z,21
2017-03-07T23:47:53.962Z,17
2017-03-07T23:57:53.797Z,18
